createdAt,value
2018-02-08T00:28:45.061Z,41.80
2018-02-08T01:47:02.810Z,41.60
2018-02-08T01:52:06.139Z,40.72
2018-02-08T02:02:38.969Z,40.37
2018-02-08T02:07:42.764Z,41.70
2018-02-08T02:12:48.846Z,42.17
2018-02-08T02:17:52.726Z,42.38
2018-02-08T02:34:14.651Z,40.60
2018-02-08T03:07:29.695Z,41.27
2018-02-08T03:18:03.591Z,41.00
2018-02-08T03:23:07.042Z,41.43
2018-02-08T03:28:10.970Z,42.72
2018-02-08T03:33:18.547Z,44.65
2018-02-08T03:43:59.588Z,44.37
2018-02-08T03:49:03.911Z,45.50
2018-02-08T03:54:09.159Z,44.70
2018-02-08T03:59:15.831Z,42.92
2018-02-08T04:15:35.511Z,44.63
2018-02-08T04:31:55.121Z,45.80
2018-02-08T04:36:59.134Z,44.97
2018-02-08T04:42:13.770Z,45.22
2018-02-08T04:58:32.720Z,44.90
2018-02-08T05:03:35.845Z,47.22
2018-02-08T05:08:38.882Z,45.07
2018-02-08T05:13:41.970Z,45.70
2018-02-08T05:18:45.823Z,43.03
2018-02-08T05:23:49.245Z,43.80
2018-02-08T05:28:52.706Z,45.50
2018-02-08T05:33:56.054Z,46.73
2018-02-08T05:39:00.495Z,46.65
2018-02-08T05:44:04.478Z,44.58
2018-02-08T05:49:09.278Z,46.70
2018-02-08T05:54:12.344Z,50.05
2018-02-08T05:59:15.288Z,45.92
2018-02-08T06:04:25.664Z,48.75
2018-02-08T06:09:31.834Z,47.97
2018-02-08T06:14:34.740Z,48.30
2018-02-08T06:19:37.600Z,48.10
2018-02-08T06:24:41.351Z,49.42
2018-02-08T06:29:45.123Z,48.00
2018-02-08T06:34:51.195Z,47.40
2018-02-08T06:39:57.169Z,44.15
2018-02-08T06:45:02.419Z,47.35
2018-02-08T06:50:06.369Z,45.33
2018-02-08T06:55:09.186Z,48.42
2018-02-08T07:00:12.310Z,46.88
2018-02-08T07:05:15.191Z,47.10
2018-02-08T07:10:18.107Z,49.15
2018-02-08T07:15:22.063Z,46.67
2018-02-08T07:20:27.883Z,46.25
2018-02-08T07:25:30.666Z,45.33
2018-02-08T07:30:33.524Z,46.63
2018-02-08T07:35:36.449Z,44.93
2018-02-08T07:40:39.272Z,44.43
2018-02-08T07:45:43.046Z,43.87
2018-02-08T07:50:47.543Z,45.28
2018-02-08T07:55:50.400Z,48.40
2018-02-08T08:00:54.244Z,47.30
2018-02-08T08:05:57.206Z,48.75
2018-02-08T08:11:00.083Z,47.65
2018-02-08T08:16:03.102Z,43.67
2018-02-08T08:21:05.937Z,47.65
2018-02-08T08:26:08.831Z,46.58
2018-02-08T08:31:12.585Z,48.13
2018-02-08T08:36:15.415Z,48.20
2018-02-08T08:41:18.286Z,44.75
2018-02-08T08:46:21.138Z,46.67
2018-02-08T08:51:23.967Z,48.70
2018-02-08T08:56:27.810Z,47.90
2018-02-08T09:01:32.613Z,47.38
2018-02-08T09:06:35.452Z,47.20
2018-02-08T09:11:38.422Z,48.40
2018-02-08T09:16:41.492Z,46.42
2018-02-08T09:21:46.743Z,47.70
2018-02-08T09:26:50.149Z,48.38
2018-02-08T09:31:55.319Z,47.53
2018-02-08T09:36:59.200Z,46.40
2018-02-08T09:42:02.773Z,47.55
2018-02-08T09:47:07.337Z,48.87
2018-02-08T09:52:11.259Z,48.30
2018-02-08T09:57:15.746Z,49.13
2018-02-08T10:02:21.658Z,46.80
2018-02-08T10:07:25.491Z,46.97
2018-02-08T10:12:29.312Z,45.58
2018-02-08T10:17:34.277Z,46.05
2018-02-08T10:22:38.047Z,46.45
2018-02-08T10:27:43.058Z,47.78
2018-02-08T10:32:46.736Z,49.15
2018-02-08T10:37:50.481Z,47.67
2018-02-08T10:42:54.191Z,47.85
2018-02-08T10:47:57.803Z,48.65
2018-02-08T10:53:01.626Z,45.50
2018-02-08T10:58:05.346Z,47.07
2018-02-08T11:03:09.501Z,49.10
2018-02-08T11:08:28.954Z,50.00
2018-02-08T11:13:43.627Z,49.88
2018-02-08T11:18:47.353Z,49.27
2018-02-08T11:23:52.594Z,48.30
2018-02-08T11:40:13.748Z,70.83
2018-02-08T11:45:16.931Z,51.90
2018-02-08T11:50:26.649Z,50.87
2018-02-08T12:01:56.964Z,52.33
2018-02-08T12:07:02.748Z,48.70
2018-02-08T12:12:25.485Z,49.53
2018-02-08T12:34:28.792Z,51.20
2018-02-08T12:45:16.708Z,48.40
2018-02-08T12:55:49.540Z,50.90
2018-02-08T13:06:31.802Z,50.00
2018-02-08T14:02:25.797Z,50.40
2018-02-08T14:35:41.735Z,48.13
2018-02-08T14:40:48.947Z,52.38
2018-02-08T14:46:03.301Z,49.33
2018-02-08T14:51:12.317Z,50.17
2018-02-08T14:56:19.109Z,51.33
2018-02-08T15:01:25.123Z,51.30
2018-02-08T15:06:30.174Z,51.80
2018-02-08T15:11:34.302Z,52.38
2018-02-08T15:16:39.057Z,52.17
2018-02-08T15:21:48.284Z,59.03
2018-02-08T15:26:54.031Z,54.08
2018-02-08T15:32:06.694Z,52.80
2018-02-08T15:42:48.936Z,51.58
2018-02-08T15:47:53.692Z,50.20
2018-02-08T15:52:57.386Z,51.53
2018-02-08T15:58:01.130Z,52.60
2018-02-08T16:03:04.665Z,53.80
2018-02-08T16:08:08.544Z,53.05
2018-02-08T16:13:12.222Z,54.17
2018-02-08T16:18:16.904Z,55.00
2018-02-08T16:23:21.467Z,55.58
2018-02-08T16:28:25.464Z,54.63
2018-02-08T16:33:29.135Z,53.63
2018-02-08T16:38:33.077Z,54.10
2018-02-08T16:43:36.920Z,56.88
2018-02-08T16:48:41.463Z,53.50
2018-02-08T17:39:59.423Z,52.38
2018-02-08T17:45:03.066Z,53.30
2018-02-08T17:50:07.100Z,54.78
2018-02-08T17:55:11.122Z,50.90
2018-02-08T18:05:51.675Z,53.47
2018-02-08T18:11:00.415Z,51.00
2018-02-08T18:16:03.260Z,49.67
2018-02-08T18:21:07.060Z,52.97
2018-02-08T18:26:09.920Z,51.30
2018-02-08T18:31:12.814Z,53.40
2018-02-08T18:36:16.662Z,53.72
2018-02-08T18:41:19.496Z,49.33
2018-02-08T18:46:22.439Z,50.60
2018-02-08T18:51:26.258Z,51.25
2018-02-08T18:56:29.246Z,50.53
2018-02-08T19:01:37.080Z,53.03
2018-02-08T19:06:46.536Z,60.00
2018-02-08T19:11:55.201Z,56.55
2018-02-08T19:17:05.589Z,61.05
2018-02-08T19:22:12.176Z,60.35
2018-02-08T19:27:19.246Z,59.75
2018-02-08T19:32:30.324Z,55.00
2018-02-08T19:37:37.302Z,59.83
2018-02-08T19:42:45.818Z,61.08
2018-02-08T19:47:52.561Z,59.50
2018-02-08T19:53:03.918Z,59.83
2018-02-08T19:58:06.879Z,62.25
2018-02-08T20:03:09.722Z,59.55
2018-02-08T20:08:12.549Z,52.75
2018-02-08T20:13:16.827Z,67.18
2018-02-08T20:18:19.634Z,62.13
2018-02-08T20:23:22.624Z,62.10
2018-02-08T20:28:26.746Z,62.22
2018-02-08T20:33:35.760Z,61.13
2018-02-08T20:38:38.683Z,57.80
2018-02-08T20:43:42.837Z,67.20
2018-02-08T20:48:47.233Z,68.60
2018-02-08T20:53:50.047Z,78.63
2018-02-08T20:58:53.560Z,68.53
2018-02-08T21:03:56.419Z,65.10
2018-02-08T21:08:59.375Z,62.35
2018-02-08T21:14:04.957Z,60.38
2018-02-08T21:19:08.119Z,60.45
2018-02-08T21:24:11.368Z,61.42
2018-02-08T21:29:14.231Z,60.97
2018-02-08T21:34:18.121Z,57.03
2018-02-08T21:39:21.019Z,60.77
2018-02-08T21:44:23.828Z,61.45
2018-02-08T21:49:26.652Z,57.00
2018-02-08T21:54:36.424Z,57.30
2018-02-08T21:59:39.273Z,63.27
2018-02-08T22:04:42.976Z,67.03
2018-02-08T22:09:47.427Z,66.77
2018-02-08T22:14:50.390Z,63.65
2018-02-08T22:19:54.151Z,62.30
2018-02-08T22:25:00.812Z,64.40
2018-02-08T22:30:03.679Z,56.80
2018-02-08T22:35:06.560Z,62.40
2018-02-08T22:40:10.413Z,63.05
2018-02-08T22:45:14.138Z,61.47
2018-02-08T22:50:17.948Z,63.65
2018-02-08T22:55:20.772Z,62.47
2018-02-08T23:00:24.687Z,64.62
2018-02-08T23:05:27.435Z,60.65
2018-02-08T23:10:30.262Z,59.53
2018-02-08T23:15:34.017Z,54.63
2018-02-08T23:20:37.712Z,56.65
2018-02-08T23:25:40.687Z,60.83
2018-02-08T23:30:43.730Z,60.65
2018-02-08T23:35:46.770Z,60.40
2018-02-08T23:40:49.527Z,58.53
2018-02-08T23:45:52.321Z,52.25
2018-02-08T23:50:56.626Z,59.40
2018-02-08T23:56:00.035Z,56.33
